createdAt,value
2022-11-16T00:01:14.945Z,6.90
2022-11-16T00:03:42.460Z,6.80
2022-11-16T00:06:10.710Z,6.70
2022-11-16T00:08:40.387Z,6.80
2022-11-16T00:11:09.050Z,6.80
2022-11-16T00:13:36.521Z,6.80
2022-11-16T00:16:03.929Z,6.80
2022-11-16T00:18:31.952Z,6.80
2022-11-16T00:20:59.090Z,6.80
2022-11-16T00:23:25.737Z,6.80
2022-11-16T00:25:52.586Z,6.80
2022-11-16T00:28:19.223Z,7.10
2022-11-16T00:30:45.777Z,6.70
2022-11-16T00:33:15.046Z,6.80
2022-11-16T00:35:42.411Z,6.60
2022-11-16T00:38:09.141Z,6.70
2022-11-16T00:40:35.898Z,6.70
2022-11-16T00:43:02.501Z,6.80
2022-11-16T00:45:29.112Z,6.70
2022-11-16T00:48:00.319Z,7.00
2022-11-16T00:50:27.304Z,6.70
2022-11-16T00:52:54.526Z,6.60
2022-11-16T00:55:21.231Z,6.80
2022-11-16T00:57:47.884Z,5.90
2022-11-16T01:00:15.726Z,6.70
2022-11-16T01:02:42.338Z,6.10
2022-11-16T01:05:11.947Z,6.60
2022-11-16T01:07:39.897Z,5.80
2022-11-16T01:10:11.754Z,6.60
2022-11-16T01:12:38.103Z,5.90
2022-11-16T01:15:08.222Z,6.60
2022-11-16T01:17:34.914Z,6.60
2022-11-16T01:20:01.682Z,6.90
2022-11-16T01:22:28.252Z,6.80
2022-11-16T01:24:54.828Z,6.50
2022-11-16T01:27:22.294Z,6.60
2022-11-16T01:29:48.906Z,6.60
2022-11-16T01:32:15.510Z,6.70
2022-11-16T01:34:42.263Z,6.50
2022-11-16T01:39:36.027Z,6.80
2022-11-16T01:42:03.083Z,6.60
2022-11-16T01:44:58.209Z,6.90
2022-11-16T01:49:56.176Z,6.60
2022-11-16T01:52:27.633Z,6.90
2022-11-16T01:54:54.984Z,6.60
2022-11-16T01:57:23.971Z,6.60
2022-11-16T01:59:55.339Z,6.60
2022-11-16T02:02:22.954Z,6.60
2022-11-16T02:04:52.060Z,6.60
2022-11-16T02:07:26.023Z,6.50
2022-11-16T02:10:09.737Z,6.50
2022-11-16T02:12:57.163Z,6.40
2022-11-16T02:15:29.985Z,6.60
2022-11-16T02:18:10.158Z,6.50
2022-11-16T02:20:57.311Z,6.10
2022-11-16T02:24:18.978Z,6.50
2022-11-16T02:27:07.551Z,6.80
2022-11-16T02:29:39.434Z,6.30
2022-11-16T02:32:11.861Z,6.70
2022-11-16T02:34:42.215Z,6.40
2022-11-16T02:37:11.833Z,6.10
2022-11-16T02:39:40.327Z,6.20
2022-11-16T02:42:13.097Z,6.80
2022-11-16T02:44:44.666Z,6.40
2022-11-16T02:47:15.670Z,6.50
2022-11-16T02:49:47.109Z,6.30
2022-11-16T02:52:15.400Z,6.90
2022-11-16T02:54:41.964Z,6.20
2022-11-16T02:57:33.111Z,6.50
2022-11-16T03:00:02.078Z,6.50
2022-11-16T03:02:34.173Z,6.40
2022-11-16T03:05:05.481Z,6.40
2022-11-16T03:07:35.769Z,6.50
2022-11-16T03:10:03.113Z,7.10
2022-11-16T03:12:32.190Z,6.50
2022-11-16T03:15:02.423Z,6.40
2022-11-16T03:17:32.424Z,6.50
2022-11-16T03:20:03.744Z,8.10
2022-11-16T03:22:35.080Z,6.20
2022-11-16T03:25:02.339Z,6.30
2022-11-16T03:27:36.879Z,6.30
2022-11-16T03:30:07.335Z,6.20
2022-11-16T03:32:39.934Z,6.30
2022-11-16T03:35:14.048Z,6.30
2022-11-16T03:37:41.502Z,5.80
2022-11-16T03:40:10.481Z,6.30
2022-11-16T03:42:37.863Z,6.10
2022-11-16T03:45:06.664Z,6.20
2022-11-16T03:47:33.340Z,6.20
2022-11-16T03:49:59.952Z,6.30
2022-11-16T03:52:26.809Z,6.60
2022-11-16T03:54:53.379Z,7.00
2022-11-16T03:57:20.000Z,6.40
2022-11-16T03:59:46.547Z,6.40
2022-11-16T04:02:14.068Z,6.30
2022-11-16T04:07:55.194Z,6.20
2022-11-16T04:10:40.211Z,6.00
2022-11-16T04:13:28.448Z,6.80
2022-11-16T04:16:09.567Z,6.60
2022-11-16T04:18:54.921Z,6.50
2022-11-16T04:21:43.473Z,6.70
2022-11-16T04:24:13.957Z,6.50
2022-11-16T04:27:01.838Z,6.60
2022-11-16T04:29:29.052Z,6.70
2022-11-16T04:32:13.822Z,6.70
2022-11-16T04:34:58.972Z,6.60
2022-11-16T04:37:43.373Z,6.60
2022-11-16T04:40:11.357Z,6.80
2022-11-16T04:42:38.090Z,6.70
2022-11-16T04:45:23.400Z,6.60
2022-11-16T04:47:50.189Z,6.70
2022-11-16T04:50:18.093Z,6.60
2022-11-16T04:52:45.138Z,6.60
2022-11-16T04:55:12.297Z,6.60
2022-11-16T04:57:39.101Z,6.70
2022-11-16T05:00:07.207Z,6.70
2022-11-16T05:02:33.918Z,6.70
2022-11-16T05:05:00.510Z,7.00
2022-11-16T05:07:27.815Z,6.90
2022-11-16T05:09:54.537Z,6.10
2022-11-16T05:12:23.260Z,6.90
2022-11-16T05:14:50.267Z,6.80
2022-11-16T05:17:18.178Z,6.90
2022-11-16T05:20:03.021Z,6.80
2022-11-16T05:22:30.444Z,6.90
2022-11-16T05:24:57.031Z,6.90
2022-11-16T05:27:24.974Z,7.00
2022-11-16T05:29:51.936Z,7.20
2022-11-16T05:32:19.537Z,7.00
2022-11-16T05:34:46.271Z,7.20
2022-11-16T05:37:13.579Z,7.00
2022-11-16T05:39:40.914Z,6.80
2022-11-16T05:42:07.611Z,7.00
2022-11-16T05:47:01.417Z,7.00
2022-11-16T05:49:28.036Z,7.00
2022-11-16T05:51:54.715Z,7.10
2022-11-16T05:54:24.032Z,7.10
2022-11-16T05:56:52.041Z,7.20
2022-11-16T05:59:21.827Z,7.20
2022-11-16T06:01:48.580Z,7.10
2022-11-16T06:04:15.502Z,7.30
2022-11-16T06:06:42.773Z,7.20
2022-11-16T06:09:10.876Z,6.70
2022-11-16T06:11:37.525Z,7.20
2022-11-16T06:14:05.163Z,7.40
2022-11-16T06:16:31.786Z,7.60
2022-11-16T06:18:59.763Z,7.30
2022-11-16T06:21:26.364Z,7.30
2022-11-16T06:23:53.484Z,7.80
2022-11-16T06:26:20.049Z,7.20
2022-11-16T06:28:46.660Z,7.20
2022-11-16T06:31:14.330Z,7.30
2022-11-16T06:33:40.964Z,7.30
2022-11-16T06:36:08.365Z,7.30
2022-11-16T06:38:35.155Z,7.50
2022-11-16T06:41:02.960Z,7.30
2022-11-16T06:43:29.580Z,7.30
2022-11-16T06:45:57.469Z,7.30
2022-11-16T06:48:24.761Z,7.30
2022-11-16T06:50:51.894Z,7.30
2022-11-16T06:53:19.156Z,7.30
2022-11-16T06:55:45.787Z,7.30
2022-11-16T06:58:12.578Z,7.30
2022-11-16T07:00:39.348Z,7.50
2022-11-16T07:03:06.042Z,8.60
2022-11-16T07:05:33.303Z,7.60
2022-11-16T07:08:00.154Z,7.30
2022-11-16T07:10:26.763Z,7.20
2022-11-16T07:12:53.913Z,7.30
2022-11-16T07:15:20.543Z,7.40
2022-11-16T07:17:47.121Z,7.10
2022-11-16T07:20:13.883Z,7.30
2022-11-16T07:22:41.122Z,7.50
2022-11-16T07:25:08.954Z,7.30
2022-11-16T07:27:35.574Z,6.90
2022-11-16T07:30:03.976Z,7.30
2022-11-16T07:32:30.659Z,7.30
2022-11-16T07:34:59.395Z,7.40
2022-11-16T07:37:26.718Z,7.30
2022-11-16T07:39:57.380Z,7.40
2022-11-16T07:42:23.966Z,7.30
2022-11-16T07:44:50.515Z,7.20
2022-11-16T07:47:17.074Z,7.40
2022-11-16T07:49:43.685Z,7.40
2022-11-16T07:52:10.683Z,7.40
2022-11-16T07:54:37.476Z,7.50
2022-11-16T07:57:05.088Z,7.40
2022-11-16T07:59:31.723Z,7.40
2022-11-16T08:01:58.741Z,7.40
2022-11-16T08:04:25.759Z,7.50
2022-11-16T08:06:52.497Z,7.80
2022-11-16T08:09:22.340Z,7.50
2022-11-16T08:11:51.117Z,7.50
2022-11-16T08:14:18.530Z,7.60
2022-11-16T08:19:12.329Z,7.40
2022-11-16T08:21:38.962Z,7.40
2022-11-16T08:24:06.653Z,7.50
2022-11-16T08:26:33.623Z,6.90
2022-11-16T08:29:00.553Z,7.40
2022-11-16T08:31:28.952Z,7.50
2022-11-16T08:33:56.252Z,6.90
2022-11-16T08:36:23.060Z,7.60
2022-11-16T08:38:51.541Z,7.50
2022-11-16T08:41:19.406Z,7.20
2022-11-16T08:43:46.943Z,6.70
2022-11-16T08:46:13.892Z,7.60
2022-11-16T08:48:42.189Z,7.50
2022-11-16T08:51:19.589Z,7.40
2022-11-16T08:53:48.715Z,7.50
2022-11-16T08:56:17.058Z,7.80
2022-11-16T08:58:46.163Z,6.90
2022-11-16T09:01:15.465Z,7.60
2022-11-16T09:03:42.911Z,7.50
2022-11-16T09:06:10.848Z,7.40
2022-11-16T09:08:39.668Z,7.40
2022-11-16T09:11:08.632Z,7.50
2022-11-16T09:13:35.607Z,7.70
2022-11-16T09:16:02.531Z,7.30
2022-11-16T09:18:29.603Z,7.10
2022-11-16T09:20:57.355Z,8.00
2022-11-16T09:23:25.710Z,7.50
2022-11-16T09:25:52.733Z,7.60
2022-11-16T09:28:20.501Z,7.50
2022-11-16T09:30:49.929Z,7.60
2022-11-16T09:33:16.747Z,7.50
2022-11-16T09:35:43.527Z,7.60
2022-11-16T09:38:12.710Z,7.50
2022-11-16T09:40:46.037Z,7.60
2022-11-16T09:43:20.724Z,7.60
2022-11-16T09:45:55.657Z,7.60
2022-11-16T09:48:23.798Z,7.60
2022-11-16T09:50:54.159Z,7.50
2022-11-16T09:53:30.346Z,7.60
2022-11-16T09:56:00.324Z,7.60
2022-11-16T09:58:31.655Z,5.00
2022-11-16T10:01:04.190Z,7.50
2022-11-16T10:03:36.135Z,7.50
2022-11-16T10:06:06.039Z,7.40
2022-11-16T10:08:42.914Z,7.40
2022-11-16T10:11:29.300Z,7.30
2022-11-16T10:14:04.668Z,7.60
2022-11-16T10:16:39.885Z,7.70
2022-11-16T10:19:13.184Z,7.00
2022-11-16T10:21:49.982Z,7.40
2022-11-16T10:24:41.165Z,8.20
2022-11-16T10:27:28.028Z,7.70
2022-11-16T10:30:08.430Z,7.40
2022-11-16T10:32:37.983Z,8.10
2022-11-16T10:35:13.278Z,7.40
2022-11-16T10:37:46.775Z,7.50
2022-11-16T10:40:19.997Z,7.30
2022-11-16T10:42:54.081Z,7.50
2022-11-16T10:45:26.275Z,7.70
2022-11-16T10:48:01.114Z,7.50
2022-11-16T10:50:32.861Z,7.50
2022-11-16T10:53:00.435Z,7.50
2022-11-16T10:55:28.358Z,7.00
2022-11-16T10:57:57.292Z,7.40
2022-11-16T11:00:42.601Z,7.50
2022-11-16T11:03:11.216Z,7.50
2022-11-16T11:05:47.846Z,7.60
2022-11-16T11:08:25.262Z,7.60
2022-11-16T11:11:01.104Z,7.60
2022-11-16T11:13:27.728Z,7.30
2022-11-16T11:16:14.785Z,7.50
2022-11-16T11:18:41.477Z,7.50
2022-11-16T11:21:16.479Z,7.70
2022-11-16T11:23:46.955Z,7.60
2022-11-16T11:26:34.731Z,7.40
2022-11-16T11:29:15.321Z,7.60
2022-11-16T11:31:45.570Z,7.40
2022-11-16T11:34:18.498Z,7.40
2022-11-16T11:36:48.865Z,7.50
2022-11-16T11:39:32.576Z,7.70
2022-11-16T11:42:19.774Z,7.70
2022-11-16T11:44:57.892Z,7.50
2022-11-16T11:47:58.205Z,7.60
2022-11-16T11:50:36.059Z,7.90
2022-11-16T11:53:07.885Z,7.60
2022-11-16T11:55:34.604Z,7.20
2022-11-16T11:58:03.900Z,7.80
2022-11-16T12:00:41.980Z,7.80
2022-11-16T12:03:38.443Z,7.50
2022-11-16T12:06:16.110Z,7.00
2022-11-16T12:09:15.629Z,7.60
2022-11-16T12:11:57.774Z,7.60
2022-11-16T12:14:35.380Z,7.60
2022-11-16T12:17:08.419Z,7.40
2022-11-16T12:19:55.500Z,7.60
2022-11-16T12:22:42.449Z,7.80
2022-11-16T12:25:21.243Z,7.70
2022-11-16T12:28:03.281Z,7.70
2022-11-16T12:30:39.086Z,7.70
2022-11-16T12:33:25.471Z,7.60
2022-11-16T12:35:59.648Z,7.60
2022-11-16T12:38:43.163Z,7.70
2022-11-16T12:41:56.289Z,7.00
2022-11-16T12:44:38.150Z,7.90
2022-11-16T12:47:17.161Z,7.60
2022-11-16T12:50:04.696Z,7.60
2022-11-16T12:52:47.859Z,7.70
2022-11-16T12:55:29.768Z,7.00
2022-11-16T12:58:09.622Z,7.80
2022-11-16T13:00:52.844Z,7.70
2022-11-16T13:03:28.456Z,7.70
2022-11-16T13:05:59.810Z,7.70
2022-11-16T13:08:43.143Z,7.70
2022-11-16T13:11:17.906Z,7.70
2022-11-16T13:13:51.436Z,7.70
2022-11-16T13:16:20.004Z,7.70
2022-11-16T13:18:47.628Z,7.70
2022-11-16T13:21:28.552Z,7.60
2022-11-16T13:24:15.620Z,7.70
2022-11-16T13:26:47.919Z,7.70
2022-11-16T13:29:26.117Z,8.40
2022-11-16T13:31:58.052Z,7.70
2022-11-16T13:34:31.070Z,7.90
2022-11-16T13:36:57.996Z,7.70
2022-11-16T13:40:06.100Z,7.70
2022-11-16T13:42:35.356Z,7.70
2022-11-16T13:45:07.416Z,7.80
2022-11-16T13:47:34.662Z,7.60
2022-11-16T13:50:05.167Z,7.90
2022-11-16T13:53:23.513Z,8.10
2022-11-16T13:55:31.776Z,7.80
2022-11-16T13:58:00.483Z,7.80
2022-11-16T14:00:30.671Z,7.80
2022-11-16T14:03:26.602Z,7.80
2022-11-16T14:05:53.911Z,7.70
2022-11-16T14:08:45.048Z,7.70
2022-11-16T14:11:27.504Z,7.70
2022-11-16T14:13:54.210Z,7.80
2022-11-16T14:16:44.981Z,7.70
2022-11-16T14:19:51.171Z,7.80
2022-11-16T14:22:43.879Z,7.90
2022-11-16T14:25:23.008Z,7.90
2022-11-16T14:27:57.693Z,7.80
2022-11-16T14:30:28.688Z,7.80
2022-11-16T14:32:56.986Z,7.80
2022-11-16T14:35:28.056Z,7.80
2022-11-16T14:37:58.634Z,7.80
2022-11-16T14:40:26.313Z,7.80
2022-11-16T14:45:47.150Z,7.90
2022-11-16T14:48:16.250Z,7.80
2022-11-16T14:50:44.896Z,7.80
2022-11-16T14:53:16.444Z,7.70
2022-11-16T14:55:45.225Z,7.10
2022-11-16T14:58:17.951Z,7.00
2022-11-16T15:00:52.771Z,7.50
2022-11-16T15:03:21.129Z,7.10
2022-11-16T15:08:20.580Z,7.60
2022-11-16T15:10:52.139Z,7.60
2022-11-16T15:13:20.716Z,7.50
2022-11-16T15:15:47.812Z,7.80
2022-11-16T15:18:18.144Z,7.40
2022-11-16T15:20:49.594Z,7.60
2022-11-16T15:23:17.791Z,7.90
2022-11-16T15:25:46.316Z,7.90
2022-11-16T15:28:17.971Z,7.70
2022-11-16T15:30:48.258Z,6.80
2022-11-16T15:33:19.761Z,7.90
2022-11-16T15:35:46.904Z,7.80
2022-11-16T15:38:17.801Z,7.40
2022-11-16T15:40:50.129Z,7.10
2022-11-16T15:43:19.007Z,7.60
2022-11-16T15:45:46.254Z,7.80
2022-11-16T15:48:18.487Z,7.90
2022-11-16T15:51:03.050Z,7.70
2022-11-16T15:53:37.632Z,7.70
2022-11-16T15:56:08.231Z,7.50
2022-11-16T15:58:38.756Z,7.50
2022-11-16T16:01:05.827Z,7.60
2022-11-16T16:03:35.225Z,7.60
2022-11-16T16:06:03.256Z,7.80
2022-11-16T16:08:32.789Z,7.60
2022-11-16T16:11:08.465Z,7.60
2022-11-16T16:13:37.611Z,7.60
2022-11-16T16:16:25.798Z,7.60
2022-11-16T16:18:55.184Z,8.30
2022-11-16T16:21:22.049Z,7.40
2022-11-16T16:23:50.353Z,7.60
2022-11-16T16:26:17.984Z,7.60
2022-11-16T16:28:45.059Z,7.90
2022-11-16T16:31:12.348Z,7.70
2022-11-16T16:33:39.089Z,7.80
2022-11-16T16:36:06.632Z,6.40
2022-11-16T16:41:04.695Z,7.60
2022-11-16T16:43:32.806Z,7.90
2022-11-16T16:46:01.607Z,7.50
2022-11-16T16:48:33.864Z,7.50
2022-11-16T16:51:00.472Z,7.60
2022-11-16T16:55:54.361Z,7.70
2022-11-16T17:00:49.328Z,7.70
2022-11-16T17:03:16.003Z,7.70
2022-11-16T17:05:42.786Z,7.60
2022-11-16T17:08:09.381Z,6.70
2022-11-16T17:10:37.573Z,7.60
2022-11-16T17:13:05.227Z,7.70
2022-11-16T17:15:32.160Z,7.90
2022-11-16T17:17:59.994Z,7.80
2022-11-16T17:20:27.233Z,7.70
2022-11-16T17:22:53.815Z,7.60
2022-11-16T17:25:20.983Z,7.70
2022-11-16T17:27:48.511Z,6.80
2022-11-16T17:30:15.932Z,7.80
2022-11-16T17:32:42.636Z,7.70
2022-11-16T17:35:10.363Z,7.50
2022-11-16T17:37:37.140Z,7.60
2022-11-16T17:40:05.025Z,7.40
2022-11-16T17:42:32.763Z,7.50
2022-11-16T17:44:59.651Z,7.90
2022-11-16T17:47:26.819Z,7.70
2022-11-16T17:49:54.037Z,7.60
2022-11-16T17:52:21.959Z,7.40
2022-11-16T17:54:48.664Z,7.90
2022-11-16T17:57:15.263Z,7.50
2022-11-16T17:59:42.186Z,7.70
2022-11-16T18:02:10.289Z,7.70
2022-11-16T18:04:37.396Z,7.70
2022-11-16T18:07:04.308Z,7.60
2022-11-16T18:09:31.653Z,7.40
2022-11-16T18:12:01.418Z,7.40
2022-11-16T18:14:28.312Z,7.50
2022-11-16T18:16:56.246Z,7.30
2022-11-16T18:19:26.600Z,7.40
2022-11-16T18:21:53.252Z,7.40
2022-11-16T18:24:19.885Z,7.40
2022-11-16T18:26:47.611Z,7.40
2022-11-16T18:29:18.439Z,7.70
2022-11-16T18:31:45.078Z,7.40
2022-11-16T18:34:12.816Z,7.30
2022-11-16T18:36:40.361Z,7.30
2022-11-16T18:39:07.709Z,7.20
2022-11-16T18:41:34.432Z,7.30
2022-11-16T18:44:02.355Z,7.30
2022-11-16T18:46:30.676Z,8.00
2022-11-16T18:48:57.687Z,7.40
2022-11-16T18:51:26.768Z,7.60
2022-11-16T18:53:53.784Z,7.20
2022-11-16T18:56:21.294Z,7.50
2022-11-16T18:58:50.859Z,7.20
2022-11-16T19:01:21.149Z,7.00
2022-11-16T19:03:47.908Z,7.60
2022-11-16T19:06:17.193Z,7.30
2022-11-16T19:08:45.421Z,7.40
2022-11-16T19:11:16.047Z,6.90
2022-11-16T19:13:43.719Z,6.80
2022-11-16T19:16:12.959Z,7.40
2022-11-16T19:18:40.644Z,9.50
2022-11-16T19:21:09.017Z,7.70
2022-11-16T19:23:36.896Z,7.50
2022-11-16T19:26:06.421Z,7.60
2022-11-16T19:28:35.811Z,7.20
2022-11-16T19:31:07.356Z,7.30
2022-11-16T19:33:34.442Z,7.30
2022-11-16T19:36:10.092Z,7.50
2022-11-16T19:38:37.280Z,7.10
2022-11-16T19:41:04.263Z,7.30
2022-11-16T19:43:31.309Z,7.20
2022-11-16T19:46:02.705Z,7.30
2022-11-16T19:48:31.046Z,7.50
2022-11-16T19:51:03.150Z,7.10
2022-11-16T19:53:31.712Z,7.10
2022-11-16T19:55:59.025Z,7.20
2022-11-16T19:58:26.678Z,7.20
2022-11-16T20:05:47.307Z,7.20
2022-11-16T20:10:42.208Z,9.20
2022-11-16T20:13:08.821Z,7.10
2022-11-16T20:15:35.492Z,7.30
2022-11-16T20:20:34.292Z,7.20
2022-11-16T20:23:04.765Z,7.20
2022-11-16T20:25:39.601Z,6.50
2022-11-16T20:28:07.130Z,7.20
2022-11-16T20:30:36.383Z,7.20
2022-11-16T20:33:05.396Z,7.20
2022-11-16T20:35:33.881Z,7.10
2022-11-16T20:40:29.207Z,7.30
2022-11-16T20:42:59.633Z,7.60
2022-11-16T20:45:27.229Z,6.70
2022-11-16T20:47:54.328Z,6.90
2022-11-16T20:50:24.746Z,6.60
2022-11-16T20:52:52.798Z,6.60
2022-11-16T20:55:23.596Z,7.00
2022-11-16T21:00:18.892Z,7.00
2022-11-16T21:02:49.606Z,6.80
2022-11-16T21:05:17.358Z,6.60
2022-11-16T21:07:43.957Z,6.80
2022-11-16T21:10:20.170Z,6.30
2022-11-16T21:13:07.402Z,7.00
2022-11-16T21:15:36.141Z,6.80
2022-11-16T21:18:05.791Z,6.80
2022-11-16T21:20:32.604Z,6.90
2022-11-16T21:22:59.304Z,6.80
2022-11-16T21:25:28.207Z,6.50
2022-11-16T21:27:56.533Z,6.70
2022-11-16T21:30:23.576Z,6.70
2022-11-16T21:32:51.000Z,6.70
2022-11-16T21:35:20.178Z,6.80
2022-11-16T21:40:14.607Z,6.70
2022-11-16T21:42:41.532Z,7.10
2022-11-16T21:45:09.597Z,6.60
2022-11-16T21:47:36.227Z,6.50
2022-11-16T21:52:54.506Z,6.60
2022-11-16T21:55:21.182Z,6.50
2022-11-16T21:57:51.324Z,5.80
2022-11-16T22:00:19.126Z,6.70
2022-11-16T22:02:45.858Z,6.80
2022-11-16T22:05:30.498Z,6.60
2022-11-16T22:08:02.791Z,6.40
2022-11-16T22:10:29.336Z,6.40
2022-11-16T22:12:55.989Z,6.30
2022-11-16T22:15:22.648Z,6.70
2022-11-16T22:17:49.305Z,6.50
2022-11-16T22:20:16.662Z,6.60
2022-11-16T22:22:43.278Z,6.50
2022-11-16T22:25:13.150Z,6.40
2022-11-16T22:27:58.728Z,6.40
2022-11-16T22:30:26.709Z,6.70
2022-11-16T22:32:53.344Z,6.60
2022-11-16T22:35:20.001Z,6.40
2022-11-16T22:37:46.638Z,6.40
2022-11-16T22:40:17.775Z,7.20
2022-11-16T22:42:45.564Z,6.60
2022-11-16T22:45:12.195Z,6.40
2022-11-16T22:47:38.816Z,6.30
2022-11-16T22:50:06.176Z,6.20
2022-11-16T22:52:33.937Z,6.00
2022-11-16T22:55:00.522Z,6.20
2022-11-16T22:57:27.775Z,6.40
2022-11-16T22:59:54.649Z,6.30
2022-11-16T23:02:21.458Z,6.20
2022-11-16T23:04:49.223Z,6.20
2022-11-16T23:07:16.065Z,6.30
2022-11-16T23:09:43.309Z,6.00
2022-11-16T23:12:28.270Z,6.00
2022-11-16T23:15:13.675Z,6.30
2022-11-16T23:17:40.926Z,5.90
2022-11-16T23:20:27.816Z,5.90
2022-11-16T23:23:12.374Z,6.10
2022-11-16T23:25:57.587Z,6.10
2022-11-16T23:28:24.658Z,6.10
2022-11-16T23:30:52.024Z,5.80
2022-11-16T23:33:39.805Z,5.80
2022-11-16T23:36:07.026Z,5.70
2022-11-16T23:38:33.858Z,5.70
2022-11-16T23:41:21.386Z,5.70
2022-11-16T23:43:59.677Z,5.90
2022-11-16T23:46:28.471Z,5.90
2022-11-16T23:48:55.319Z,6.00
2022-11-16T23:51:23.018Z,5.90
2022-11-16T23:53:50.473Z,6.10
2022-11-16T23:56:17.285Z,5.50
2022-11-16T23:58:43.867Z,6.00
